Time;durP1;ratioP1;P1;durP2;ratioP2;P2;SDS_P1;SDS_P2;PMS_P1;PMS_P2;Temp;Humidity;BMP_temperature;BMP_pressure;BME280_temperature;BME280_humidity;BME280_pressure;Samples;Min_cycle;Max_cycle;Signal;HPM_P1;HPM_P2
2022/10/14 00:01:52;;;;;;;12.83;11.63;;;13.40;99.90;;;;;;5002164;28;20191;-67
2022/10/14 00:04:17;;;;;;;17.00;11.47;;;13.30;99.90;;;;;;4996429;28;20182;-67
2022/10/14 00:06:43;;;;;;;14.43;11.00;;;13.40;99.90;;;;;;5001585;28;20193;-67
2022/10/14 00:09:09;;;;;;;12.07;10.97;;;13.30;99.90;;;;;;4997453;28;20179;-67
2022/10/14 00:11:36;;;;;;;11.17;10.13;;;13.30;99.90;;;;;;4998216;28;20191;-67
2022/10/14 00:14:06;;;;;;;11.13;10.10;;;13.20;99.90;;;;;;4991333;28;20207;-67
2022/10/14 00:16:35;;;;;;;14.07;12.80;;;13.20;99.90;;;;;;4997438;28;20442;-67
2022/10/14 00:19:01;;;;;;;13.23;11.93;;;13.20;99.90;;;;;;4999358;28;20465;-67
2022/10/14 00:21:28;;;;;;;13.40;12.03;;;13.20;99.90;;;;;;5000503;28;20454;-67
2022/10/14 00:23:55;;;;;;;12.53;10.00;;;13.10;99.90;;;;;;4993213;28;20964;-67
2022/10/14 00:26:23;;;;;;;12.97;11.87;;;13.00;99.90;;;;;;4997389;28;20430;-67
2022/10/14 00:28:49;;;;;;;12.37;11.37;;;13.00;99.90;;;;;;5001224;28;21056;-67
2022/10/14 00:31:16;;;;;;;11.77;10.57;;;13.00;99.90;;;;;;4998444;28;20446;-67
2022/10/14 00:33:42;;;;;;;13.20;12.10;;;13.00;99.90;;;;;;4997959;28;20458;-66
2022/10/14 00:36:07;;;;;;;12.23;10.00;;;13.00;99.90;;;;;;5001144;28;20437;-67
2022/10/14 00:38:34;;;;;;;9.47;8.57;;;13.00;99.90;;;;;;4998539;28;20459;-67
2022/10/14 00:41:00;;;;;;;11.87;10.00;;;13.00;99.90;;;;;;5001165;28;20977;-67
2022/10/14 00:43:27;;;;;;;9.53;8.60;;;13.10;99.90;;;;;;5001730;28;20450;-67
2022/10/14 00:45:52;;;;;;;11.73;8.87;;;13.10;99.90;;;;;;5000837;28;20491;-67
2022/10/14 00:48:22;;;;;;;9.40;8.40;;;13.10;99.90;;;;;;4993892;28;20446;-67
2022/10/14 00:50:53;;;;;;;9.23;8.43;;;13.20;99.90;;;;;;4999965;28;20179;-67
2022/10/14 00:53:19;;;;;;;9.97;8.83;;;13.20;99.90;;;;;;5003160;28;20485;-67
2022/10/14 00:55:45;;;;;;;10.27;8.90;;;13.20;99.90;;;;;;4999103;28;20442;-67
2022/10/14 00:58:11;;;;;;;11.03;10.03;;;13.20;99.90;;;;;;5006840;28;20433;-67
2022/10/14 01:00:37;;;;;;;11.60;10.40;;;13.20;99.90;;;;;;4996834;28;20266;-67
2022/10/14 01:03:16;;;;;;;9.07;8.00;;;13.20;99.90;;;;;;5004612;28;20207;-67
2022/10/14 01:06:03;;;;;;;9.93;8.80;;;13.20;99.90;;;;;;5003940;28;20444;-67
2022/10/14 01:08:54;;;;;;;13.17;9.63;;;13.20;99.90;;;;;;4994475;28;20880;-67
2022/10/14 01:11:50;;;;;;;10.10;9.10;;;13.20;99.90;;;;;;4997867;28;20867;-67
2022/10/14 01:14:32;;;;;;;9.70;8.90;;;13.20;99.90;;;;;;5001832;28;20533;-67
2022/10/14 01:17:13;;;;;;;15.10;9.43;;;13.20;99.90;;;;;;4993264;28;20439;-67
2022/10/14 01:19:59;;;;;;;10.40;8.77;;;13.20;99.90;;;;;;4999535;28;20426;-67
2022/10/14 01:22:31;;;;;;;10.00;8.30;;;13.20;99.90;;;;;;4994939;28;20581;-67
2022/10/14 01:25:10;;;;;;;8.43;7.70;;;13.20;99.90;;;;;;5006258;28;20440;-67
2022/10/14 01:27:48;;;;;;;9.63;8.83;;;13.20;99.90;;;;;;5004005;28;20427;-67
2022/10/14 01:30:19;;;;;;;9.80;8.80;;;13.10;99.90;;;;;;4995580;28;20429;-67
2022/10/14 01:33:07;;;;;;;9.47;8.50;;;13.20;99.90;;;;;;4992379;28;20561;-67
2022/10/14 01:35:49;;;;;;;10.00;9.10;;;13.20;99.90;;;;;;5003650;28;20442;-67
2022/10/14 01:38:42;;;;;;;12.90;9.43;;;13.20;99.90;;;;;;5002977;28;20824;-67
2022/10/14 01:41:13;;;;;;;10.73;9.43;;;13.10;99.90;;;;;;5003122;28;20429;-67
2022/10/14 01:43:41;;;;;;;10.50;9.50;;;13.10;99.90;;;;;;5013861;28;20437;-67
2022/10/14 01:46:09;;;;;;;14.33;9.93;;;13.10;99.90;;;;;;4998221;28;20449;-67
2022/10/14 01:48:37;;;;;;;10.60;9.50;;;13.10;99.90;;;;;;4993881;28;20778;-67
2022/10/14 01:51:10;;;;;;;13.57;9.60;;;13.20;99.90;;;;;;4992708;28;20509;-67
2022/10/14 01:53:40;;;;;;;12.23;9.50;;;13.20;99.90;;;;;;4994062;28;20466;-67
2022/10/14 01:56:07;;;;;;;11.30;10.10;;;13.20;99.90;;;;;;4993552;28;20529;-67
2022/10/14 01:58:35;;;;;;;22.70;10.80;;;13.20;99.90;;;;;;4993085;28;20423;-67
2022/10/14 02:01:05;;;;;;;11.93;10.70;;;13.30;99.90;;;;;;4993611;28;20423;-67
2022/10/14 02:03:41;;;;;;;10.07;9.07;;;13.30;99.90;;;;;;4993835;28;20446;-67
2022/10/14 02:06:16;;;;;;;11.83;10.60;;;13.40;99.90;;;;;;4993758;28;20418;-67
2022/10/14 02:08:47;;;;;;;11.17;10.07;;;13.40;99.90;;;;;;4993716;28;20422;-67
2022/10/14 02:11:16;;;;;;;10.70;9.70;;;13.40;99.90;;;;;;5001599;28;20485;-67
2022/10/14 02:14:07;;;;;;;12.50;10.23;;;13.40;99.90;;;;;;5005628;28;20527;-67
2022/10/14 02:17:12;;;;;;;11.17;10.03;;;13.40;99.90;;;;;;5001560;28;20525;-67
2022/10/14 02:19:41;;;;;;;11.63;9.70;;;13.40;99.90;;;;;;4998626;28;20445;-67
2022/10/14 02:22:23;;;;;;;10.70;9.67;;;13.40;99.90;;;;;;5006723;28;20472;-67
2022/10/14 02:24:54;;;;;;;9.90;8.93;;;13.40;99.90;;;;;;4988804;28;20504;-67
2022/10/14 02:27:23;;;;;;;10.20;9.30;;;13.40;99.90;;;;;;4996069;28;20426;-67
2022/10/14 02:29:51;;;;;;;11.70;10.20;;;13.40;99.90;;;;;;4994716;28;20436;-67
2022/10/14 02:32:19;;;;;;;10.70;9.63;;;13.30;99.90;;;;;;4998109;28;20455;-67
2022/10/14 02:34:52;;;;;;;11.87;10.50;;;13.20;99.90;;;;;;5001180;28;20860;-67
2022/10/14 02:37:18;;;;;;;12.23;11.03;;;13.20;99.90;;;;;;4998843;28;20432;-67
2022/10/14 02:39:53;;;;;;;14.23;11.57;;;13.30;99.90;;;;;;4999905;28;20505;-67
2022/10/14 02:42:19;;;;;;;10.77;9.77;;;13.30;99.90;;;;;;4989404;28;20493;-67
2022/10/14 02:44:55;;;;;;;11.90;10.80;;;13.20;99.90;;;;;;4999292;28;20554;-67
2022/10/14 02:47:22;;;;;;;11.90;10.70;;;13.20;99.90;;;;;;5002311;28;20523;-67
2022/10/14 02:49:48;;;;;;;15.83;11.63;;;13.20;99.90;;;;;;4999878;28;20465;-67
2022/10/14 02:52:13;;;;;;;12.97;11.70;;;13.20;99.90;;;;;;4994563;28;20474;-67
2022/10/14 02:54:39;;;;;;;14.00;11.50;;;13.20;99.90;;;;;;5001250;28;20187;-67
2022/10/14 02:57:04;;;;;;;14.13;12.10;;;13.20;99.90;;;;;;4996046;28;20188;-67
2022/10/14 02:59:30;;;;;;;13.07;11.13;;;13.20;99.90;;;;;;5003610;28;20232;-67
2022/10/14 03:01:55;;;;;;;10.70;9.60;;;13.20;99.90;;;;;;4997392;28;20203;-67
2022/10/14 03:04:21;;;;;;;13.37;11.07;;;13.30;99.90;;;;;;4999030;28;20191;-67
2022/10/14 03:06:46;;;;;;;11.10;10.00;;;13.30;99.90;;;;;;5001872;28;20175;-67
2022/10/14 03:09:12;;;;;;;13.13;11.50;;;13.30;99.90;;;;;;5003433;28;20250;-67
2022/10/14 03:11:37;;;;;;;12.20;11.00;;;13.20;99.90;;;;;;4993626;28;20238;-67
2022/10/14 03:14:03;;;;;;;13.20;10.97;;;13.20;99.90;;;;;;4996612;28;20226;-67
2022/10/14 03:16:28;;;;;;;12.27;10.97;;;13.30;99.90;;;;;;4997468;28;20195;-67
2022/10/14 03:18:54;;;;;;;12.57;10.53;;;13.20;99.90;;;;;;4996550;28;20180;-66
2022/10/14 03:21:20;;;;;;;12.23;10.80;;;13.20;99.90;;;;;;5005606;28;20570;-67
2022/10/14 03:23:46;;;;;;;12.60;11.40;;;13.10;99.90;;;;;;4999741;28;20593;-67
2022/10/14 03:26:11;;;;;;;15.37;13.80;;;13.10;99.90;;;;;;4997482;28;20441;-67
2022/10/14 03:28:37;;;;;;;16.87;13.83;;;13.00;99.90;;;;;;5001880;28;20207;-67
2022/10/14 03:31:02;;;;;;;12.10;10.90;;;13.00;99.90;;;;;;4996708;28;20221;-67
2022/10/14 03:33:28;;;;;;;15.67;12.40;;;13.00;99.90;;;;;;5006874;28;20199;-66
2022/10/14 03:35:53;;;;;;;13.50;12.10;;;13.00;99.90;;;;;;4989729;28;20187;-67
2022/10/14 03:38:19;;;;;;;15.70;12.73;;;13.00;99.90;;;;;;5004506;28;20175;-67
2022/10/14 03:40:44;;;;;;;12.50;11.20;;;12.90;99.90;;;;;;5001948;28;20175;-67
2022/10/14 03:43:10;;;;;;;16.40;13.03;;;13.00;99.90;;;;;;5003283;28;20757;-67
2022/10/14 03:45:35;;;;;;;14.70;12.30;;;13.00;99.90;;;;;;5000290;28;20179;-67
2022/10/14 03:48:01;;;;;;;12.83;11.63;;;13.00;99.90;;;;;;4999169;28;20176;-67
2022/10/14 03:50:27;;;;;;;16.13;14.50;;;13.00;99.90;;;;;;4998870;28;20310;-67
2022/10/14 03:52:52;;;;;;;16.70;13.27;;;12.90;99.90;;;;;;4998685;28;20203;-67
2022/10/14 03:55:18;;;;;;;13.70;11.83;;;12.90;99.90;;;;;;4998608;28;20437;-67
2022/10/14 03:57:44;;;;;;;13.47;11.83;;;12.90;99.90;;;;;;4993585;28;20179;-67
2022/10/14 04:00:11;;;;;;;12.40;11.20;;;12.90;99.90;;;;;;4996122;28;20659;-67
2022/10/14 04:02:37;;;;;;;17.97;13.70;;;12.90;99.90;;;;;;5000427;28;20206;-67
2022/10/14 04:05:03;;;;;;;14.00;12.67;;;12.90;99.90;;;;;;4996516;28;20549;-67
2022/10/14 04:07:28;;;;;;;14.57;13.07;;;12.90;99.90;;;;;;5000863;28;20429;-67
2022/10/14 04:09:55;;;;;;;14.07;12.67;;;12.90;99.90;;;;;;4998939;28;20548;-67
2022/10/14 04:12:20;;;;;;;14.03;12.47;;;12.80;99.90;;;;;;4998054;28;20203;-67
2022/10/14 04:14:46;;;;;;;13.40;12.03;;;12.80;99.90;;;;;;4996916;28;20451;-67
2022/10/14 04:17:11;;;;;;;14.97;13.37;;;12.90;99.90;;;;;;5006453;28;20194;-67
2022/10/14 04:19:37;;;;;;;13.73;11.67;;;12.90;99.90;;;;;;5003708;28;20186;-67
2022/10/14 04:22:02;;;;;;;18.83;12.87;;;12.80;99.90;;;;;;5002148;28;20657;-67
2022/10/14 04:24:29;;;;;;;16.00;13.93;;;12.80;99.90;;;;;;5005498;28;20189;-67
2022/10/14 04:26:54;;;;;;;16.97;12.80;;;12.90;99.90;;;;;;5006258;28;20660;-67
2022/10/14 04:29:20;;;;;;;17.93;13.13;;;12.90;99.90;;;;;;5007413;28;20468;-67
2022/10/14 04:31:45;;;;;;;13.43;11.30;;;12.90;99.90;;;;;;4997698;28;20190;-67
2022/10/14 04:34:11;;;;;;;16.90;15.20;;;12.80;99.90;;;;;;4999108;28;20222;-67
2022/10/14 04:36:37;;;;;;;14.27;12.80;;;12.80;99.90;;;;;;5004721;28;20188;-67
2022/10/14 04:39:03;;;;;;;15.17;13.57;;;12.70;99.90;;;;;;5006407;28;20171;-68
2022/10/14 04:41:28;;;;;;;16.70;13.33;;;12.70;99.90;;;;;;5004805;28;20207;-67
2022/10/14 04:43:54;;;;;;;17.90;14.70;;;12.70;99.90;;;;;;5000558;28;21752;-67
2022/10/14 04:46:20;;;;;;;16.07;13.83;;;12.70;99.90;;;;;;5002187;28;20650;-67
2022/10/14 04:48:48;;;;;;;15.53;13.93;;;12.70;99.90;;;;;;5002484;28;20595;-67
2022/10/14 04:51:14;;;;;;;15.23;13.73;;;12.70;99.90;;;;;;5006387;28;20329;-67
2022/10/14 04:53:39;;;;;;;17.00;13.70;;;12.70;99.90;;;;;;4997553;28;20529;-67
2022/10/14 04:56:05;;;;;;;16.27;14.13;;;12.70;99.90;;;;;;5002817;28;20207;-67
2022/10/14 04:58:31;;;;;;;16.67;15.07;;;12.70;99.90;;;;;;4997592;28;20175;-67
2022/10/14 05:00:56;;;;;;;17.30;15.40;;;12.70;99.90;;;;;;5000555;28;20176;-67
2022/10/14 05:03:22;;;;;;;20.17;15.50;;;12.70;99.90;;;;;;5000140;28;20289;-67
2022/10/14 05:05:49;;;;;;;20.47;15.47;;;12.70;99.90;;;;;;5002299;28;20186;-67
2022/10/14 05:08:15;;;;;;;19.73;15.23;;;12.70;99.90;;;;;;5000375;28;20182;-67
2022/10/14 05:10:41;;;;;;;15.50;13.50;;;12.60;99.90;;;;;;5004084;28;20816;-67
2022/10/14 05:13:07;;;;;;;17.10;14.67;;;12.60;99.90;;;;;;4997945;28;20284;-67
2022/10/14 05:15:33;;;;;;;15.63;13.53;;;12.60;99.90;;;;;;5003309;28;20178;-67
2022/10/14 05:17:58;;;;;;;18.67;16.70;;;12.60;99.90;;;;;;4998062;28;20457;-67
2022/10/14 05:20:24;;;;;;;16.47;14.77;;;12.60;99.90;;;;;;5000678;28;20179;-67
2022/10/14 05:22:49;;;;;;;19.30;16.03;;;12.60;99.90;;;;;;5005214;28;20723;-67
2022/10/14 05:25:15;;;;;;;24.13;15.13;;;12.60;99.90;;;;;;5006015;28;20182;-67
2022/10/14 05:27:41;;;;;;;20.37;17.57;;;12.60;99.90;;;;;;5007090;28;20218;-67
2022/10/14 05:30:07;;;;;;;15.97;14.27;;;12.60;99.90;;;;;;5004311;28;20171;-67
2022/10/14 05:32:33;;;;;;;18.70;14.80;;;12.60;99.90;;;;;;5003549;28;20253;-67
2022/10/14 05:34:58;;;;;;;18.80;16.57;;;12.60;99.90;;;;;;4996544;28;20446;-67
2022/10/14 05:37:24;;;;;;;20.77;15.90;;;12.60;99.90;;;;;;5000979;28;20617;-67
2022/10/14 05:39:49;;;;;;;21.00;15.83;;;12.60;99.90;;;;;;5004588;28;20237;-67
2022/10/14 05:42:15;;;;;;;18.50;15.60;;;12.60;99.90;;;;;;5003410;28;20214;-67
2022/10/14 05:44:40;;;;;;;24.63;15.07;;;12.60;99.90;;;;;;4999467;28;20195;-66
2022/10/14 05:47:06;;;;;;;16.87;15.20;;;12.70;99.90;;;;;;5001398;28;20218;-67
2022/10/14 05:49:31;;;;;;;18.60;16.53;;;12.70;99.90;;;;;;5002486;28;20198;-66
2022/10/14 05:51:57;;;;;;;20.23;16.20;;;12.70;99.90;;;;;;5002448;28;20191;-67
2022/10/14 05:54:22;;;;;;;16.83;15.03;;;12.70;99.90;;;;;;5000605;28;20187;-68
2022/10/14 05:56:48;;;;;;;19.93;15.80;;;12.70;99.90;;;;;;5004952;28;20187;-68
2022/10/14 05:59:13;;;;;;;16.57;14.77;;;12.70;99.90;;;;;;4999785;28;20194;-66
2022/10/14 06:01:39;;;;;;;17.40;14.63;;;12.70;99.90;;;;;;5000399;28;20252;-67
2022/10/14 06:04:05;;;;;;;18.77;14.70;;;12.80;99.90;;;;;;5003305;28;20209;-67
2022/10/14 06:06:31;;;;;;;17.40;13.40;;;12.80;99.90;;;;;;5002096;28;20601;-67
2022/10/14 06:08:56;;;;;;;15.43;13.80;;;12.80;99.90;;;;;;4997062;28;20183;-67
2022/10/14 06:11:22;;;;;;;31.23;15.23;;;12.80;99.90;;;;;;5000160;28;20183;-68
2022/10/14 06:13:47;;;;;;;16.00;14.10;;;12.90;99.90;;;;;;4990471;28;20601;-67
2022/10/14 06:16:13;;;;;;;13.50;12.03;;;12.90;99.90;;;;;;4996895;28;20191;-67
2022/10/14 06:18:39;;;;;;;14.27;12.77;;;12.90;99.90;;;;;;5002056;28;20188;-67
2022/10/14 06:21:06;;;;;;;15.30;12.90;;;12.90;99.90;;;;;;5001400;28;20641;-67
2022/10/14 06:23:31;;;;;;;18.60;13.83;;;12.90;99.90;;;;;;4995553;28;20469;-67
2022/10/14 06:25:57;;;;;;;15.43;12.50;;;12.90;99.90;;;;;;4998558;28;20531;-67
2022/10/14 06:28:22;;;;;;;14.47;12.97;;;13.00;99.90;;;;;;4991472;28;20608;-68
2022/10/14 06:30:52;;;;;;;15.33;13.70;;;12.90;99.90;;;;;;4995200;28;20183;-67
2022/10/14 06:33:19;;;;;;;19.93;13.57;;;12.90;99.90;;;;;;5002336;28;20286;-67
2022/10/14 06:35:44;;;;;;;16.50;14.70;;;12.90;99.90;;;;;;5002333;28;20541;-67
2022/10/14 06:38:10;;;;;;;20.33;14.70;;;12.90;99.90;;;;;;4994111;28;20545;-67
2022/10/14 06:40:36;;;;;;;16.73;14.83;;;13.00;99.90;;;;;;4998887;28;20201;-67
2022/10/14 06:43:02;;;;;;;17.80;13.37;;;13.00;99.90;;;;;;4998139;28;20211;-67
2022/10/14 06:45:28;;;;;;;17.00;13.30;;;13.00;99.90;;;;;;4998372;28;20434;-67
2022/10/14 06:47:53;;;;;;;14.50;12.50;;;13.10;99.90;;;;;;5003194;28;20864;-67
2022/10/14 06:50:19;;;;;;;14.97;13.47;;;13.10;99.90;;;;;;4996183;28;20650;-67
2022/10/14 06:52:45;;;;;;;15.67;14.07;;;13.20;99.90;;;;;;5004396;28;20249;-67
2022/10/14 06:55:11;;;;;;;14.17;12.70;;;13.20;99.90;;;;;;4999443;28;20180;-67
2022/10/14 06:57:37;;;;;;;14.00;12.60;;;13.30;99.90;;;;;;5001023;28;20446;-67
2022/10/14 07:00:04;;;;;;;14.30;13.00;;;13.30;99.90;;;;;;4996111;28;20477;-68
2022/10/14 07:02:29;;;;;;;14.43;12.07;;;13.30;99.90;;;;;;4991471;28;20215;-67
2022/10/14 07:04:55;;;;;;;20.73;11.90;;;13.30;99.90;;;;;;4972813;28;20881;-67
2022/10/14 07:07:20;;;;;;;13.93;12.53;;;13.40;99.90;;;;;;4965152;28;20188;-67
2022/10/14 07:09:46;;;;;;;12.93;11.33;;;13.20;99.90;;;;;;4992921;28;20194;-67
2022/10/14 07:12:11;;;;;;;13.87;12.53;;;13.30;99.90;;;;;;4993729;28;20229;-67
2022/10/14 07:14:37;;;;;;;12.90;11.20;;;13.40;99.90;;;;;;4989238;28;20183;-67
2022/10/14 07:17:02;;;;;;;14.90;12.60;;;13.40;99.90;;;;;;4985942;28;20195;-67
2022/10/14 07:19:28;;;;;;;12.27;11.07;;;13.40;99.90;;;;;;4991865;28;20211;-67
2022/10/14 07:21:53;;;;;;;16.57;9.97;;;13.40;99.90;;;;;;4996811;28;20199;-67
2022/10/14 07:24:19;;;;;;;12.03;9.93;;;13.40;99.90;;;;;;4990003;28;20191;-66
2022/10/14 07:26:45;;;;;;;15.40;10.50;;;13.60;99.90;;;;;;4994645;28;20167;-66
2022/10/14 07:29:10;;;;;;;13.90;9.87;;;13.60;99.90;;;;;;4995361;28;20176;-67
2022/10/14 07:31:36;;;;;;;11.23;10.03;;;13.60;99.90;;;;;;4997131;28;20649;-67
2022/10/14 07:34:02;;;;;;;10.83;9.83;;;13.80;99.90;;;;;;4995474;28;20218;-67
2022/10/14 07:36:27;;;;;;;14.53;9.93;;;14.00;99.90;;;;;;4996800;28;20183;-68
2022/10/14 07:38:53;;;;;;;12.50;9.70;;;13.90;99.90;;;;;;4996527;28;20216;-67
2022/10/14 07:41:22;;;;;;;12.70;8.73;;;13.90;99.90;;;;;;4997683;28;20191;-67
2022/10/14 07:43:51;;;;;;;9.20;8.30;;;13.90;99.90;;;;;;4989102;28;20570;-68
2022/10/14 07:46:33;;;;;;;10.10;8.73;;;13.90;99.90;;;;;;4991457;28;20429;-67
2022/10/14 07:49:00;;;;;;;16.13;11.43;;;14.00;99.90;;;;;;4991898;28;20484;-68
2022/10/14 07:51:26;;;;;;;9.30;8.53;;;14.10;99.90;;;;;;4993280;28;20447;-68
2022/10/14 07:53:53;;;;;;;11.03;9.63;;;14.20;99.90;;;;;;4986237;28;20481;-67
2022/10/14 07:56:21;;;;;;;10.20;9.00;;;14.20;99.90;;;;;;4989531;28;20915;-67
2022/10/14 07:58:46;;;;;;;13.00;11.07;;;14.40;99.90;;;;;;4990584;28;20439;-68
2022/10/14 08:01:14;;;;;;;9.07;8.30;;;14.60;99.90;;;;;;4997530;28;20488;-68
2022/10/14 08:03:40;;;;;;;9.23;8.30;;;14.50;99.90;;;;;;4989381;28;20200;-68
2022/10/14 08:06:05;;;;;;;10.60;8.20;;;14.70;99.90;;;;;;4998144;28;20444;-68
2022/10/14 08:08:31;;;;;;;11.17;8.33;;;14.80;99.90;;;;;;4996345;28;20191;-67
2022/10/14 08:11:21;;;;;;;9.30;8.50;;;14.90;99.90;;;;;;4985423;28;20176;-68
2022/10/14 08:13:48;;;;;;;8.77;7.30;;;14.90;99.90;;;;;;4993031;28;20473;-68
2022/10/14 08:16:26;;;;;;;10.60;8.17;;;15.20;99.90;;;;;;4990282;28;20492;-68
2022/10/14 08:18:54;;;;;;;8.50;7.10;;;15.10;99.90;;;;;;4992417;28;20473;-68
2022/10/14 08:21:20;;;;;;;8.97;7.93;;;15.00;99.90;;;;;;4995963;28;20449;-68
2022/10/14 08:23:46;;;;;;;9.40;8.20;;;15.20;99.90;;;;;;5000174;28;20543;-67
2022/10/14 08:26:19;;;;;;;9.30;8.40;;;15.10;99.90;;;;;;4992796;28;20441;-68
2022/10/14 08:28:46;;;;;;;8.80;7.80;;;15.30;99.90;;;;;;4995973;28;20435;-68
2022/10/14 08:31:11;;;;;;;9.30;8.30;;;15.40;99.90;;;;;;4998281;28;20471;-67
2022/10/14 08:33:37;;;;;;;8.40;7.53;;;15.40;99.90;;;;;;4992640;28;20880;-67
2022/10/14 08:36:03;;;;;;;9.30;7.83;;;15.30;99.90;;;;;;4995857;28;20191;-67
2022/10/14 08:38:29;;;;;;;8.47;7.17;;;15.30;99.90;;;;;;4991707;28;20274;-67
2022/10/14 08:41:04;;;;;;;8.13;7.30;;;15.40;99.90;;;;;;4991698;28;20473;-67
2022/10/14 08:43:46;;;;;;;8.40;7.47;;;15.40;99.90;;;;;;4992792;28;20754;-68
2022/10/14 08:46:35;;;;;;;12.00;7.83;;;15.60;99.90;;;;;;4994653;28;20433;-67
2022/10/14 08:49:18;;;;;;;9.90;6.93;;;15.50;99.90;;;;;;4995909;28;20439;-67
2022/10/14 08:51:48;;;;;;;9.67;8.20;;;15.70;99.90;;;;;;4992864;28;20788;-67
2022/10/14 08:54:43;;;;;;;9.20;7.17;;;15.70;99.90;;;;;;4993881;28;20465;-67
2022/10/14 08:57:18;;;;;;;8.50;6.43;;;15.70;99.90;;;;;;4983623;28;20537;-67
2022/10/14 08:59:44;;;;;;;6.87;5.30;;;15.60;99.90;;;;;;4988191;28;20472;-68
2022/10/14 09:02:39;;;;;;;16.80;6.30;;;15.60;99.90;;;;;;4993827;28;20501;-67
2022/10/14 09:05:05;;;;;;;12.70;6.20;;;15.50;99.90;;;;;;4995926;28;20462;-67
2022/10/14 09:07:33;;;;;;;6.00;5.50;;;15.50;99.90;;;;;;5003030;28;20800;-67
2022/10/14 09:10:06;;;;;;;8.10;5.60;;;15.40;99.90;;;;;;5005642;28;20433;-67
2022/10/14 09:12:34;;;;;;;6.70;6.00;;;15.40;99.90;;;;;;4999801;28;20466;-67
2022/10/14 09:15:15;;;;;;;6.40;5.87;;;15.40;99.90;;;;;;4987392;28;20514;-67
2022/10/14 09:18:05;;;;;;;6.73;6.03;;;15.40;99.90;;;;;;5003429;28;20435;-67
2022/10/14 09:20:31;;;;;;;6.30;5.07;;;15.40;99.90;;;;;;4998573;28;20434;-67
2022/10/14 09:23:03;;;;;;;7.40;5.83;;;15.20;99.90;;;;;;4995083;28;20468;-67
2022/10/14 09:25:33;;;;;;;6.27;5.67;;;15.30;99.90;;;;;;4990137;28;20439;-68
2022/10/14 09:27:59;;;;;;;6.30;5.70;;;15.40;99.90;;;;;;4984616;28;20411;-67
2022/10/14 09:30:24;;;;;;;6.07;5.13;;;15.60;99.90;;;;;;5001208;28;20436;-67
2022/10/14 09:32:52;;;;;;;9.97;6.40;;;15.70;99.90;;;;;;4995018;28;20199;-66
2022/10/14 09:35:34;;;;;;;9.77;5.97;;;16.00;99.90;;;;;;4989054;28;20195;-68
2022/10/14 09:38:00;;;;;;;7.20;6.50;;;16.10;99.90;;;;;;4997775;28;20440;-68
2022/10/14 09:40:35;;;;;;;8.00;5.30;;;16.10;99.90;;;;;;4996830;28;20435;-67
2022/10/14 09:43:09;;;;;;;8.37;5.53;;;16.10;99.90;;;;;;4995755;28;20211;-67
2022/10/14 09:46:02;;;;;;;5.50;5.10;;;16.20;99.90;;;;;;4997107;28;20441;-67
2022/10/14 09:48:43;;;;;;;6.93;5.27;;;16.30;99.90;;;;;;5000813;28;20439;-67
2022/10/14 09:51:22;;;;;;;6.60;5.00;;;16.20;99.90;;;;;;5003832;28;20429;-67
2022/10/14 09:53:52;;;;;;;9.87;5.50;;;16.30;99.90;;;;;;4991602;28;20496;-67
2022/10/14 09:56:31;;;;;;;6.27;5.00;;;16.30;99.90;;;;;;4995465;28;20932;-66
2022/10/14 09:58:57;;;;;;;6.77;5.60;;;16.50;99.90;;;;;;4988787;28;20860;-66
2022/10/14 10:01:39;;;;;;;5.00;4.37;;;16.90;99.90;;;;;;4992148;28;20997;-66
2022/10/14 10:04:26;;;;;;;6.27;5.70;;;17.20;99.90;;;;;;4992434;28;21013;-66
2022/10/14 10:06:53;;;;;;;5.40;4.90;;;17.60;99.90;;;;;;4995091;28;20429;-67
2022/10/14 10:09:19;;;;;;;5.77;5.17;;;18.00;99.90;;;;;;4991726;28;20434;-67
2022/10/14 10:11:45;;;;;;;5.07;4.57;;;18.60;99.90;;;;;;4989006;28;20440;-66
2022/10/14 10:14:31;;;;;;;6.00;4.43;;;18.40;99.90;;;;;;4999672;28;20540;-67
2022/10/14 10:17:06;;;;;;;10.67;6.27;;;18.30;99.90;;;;;;4997692;28;20529;-67
2022/10/14 10:19:33;;;;;;;20.83;11.63;;;18.60;99.90;;;;;;4993965;28;20781;-67
2022/10/14 10:22:25;;;;;;;6.73;5.47;;;18.40;99.90;;;;;;4989423;28;20980;-67
2022/10/14 10:25:00;;;;;;;11.80;7.27;;;18.30;99.90;;;;;;4983414;28;20434;-68
2022/10/14 10:27:30;;;;;;;6.03;4.93;;;18.20;99.90;;;;;;4998421;28;20445;-67
2022/10/14 10:29:55;;;;;;;4.97;4.57;;;18.00;99.90;;;;;;4999009;28;20524;-67
2022/10/14 10:32:28;;;;;;;8.33;6.93;;;17.50;99.90;;;;;;5005727;28;20504;-68
2022/10/14 10:35:21;;;;;;;6.17;4.70;;;17.20;99.90;;;;;;4989609;28;20661;-68
2022/10/14 10:37:59;;;;;;;5.93;5.33;;;17.20;99.90;;;;;;5019442;28;20955;-68
2022/10/14 10:40:46;;;;;;;6.30;4.60;;;17.20;99.90;;;;;;4992685;28;20438;-68
2022/10/14 10:43:35;;;;;;;6.00;4.70;;;17.20;99.90;;;;;;4994713;28;20520;-67
2022/10/14 10:46:09;;;;;;;7.50;5.00;;;17.20;99.90;;;;;;4993980;28;20943;-67
2022/10/14 10:49:00;;;;;;;6.67;4.50;;;17.20;99.90;;;;;;4987129;28;20490;-67
2022/10/14 10:51:52;;;;;;;5.83;5.23;;;17.20;99.90;;;;;;4996316;28;20442;-67
2022/10/14 10:54:45;;;;;;;4.53;4.13;;;17.30;99.90;;;;;;4980224;28;20546;-67
2022/10/14 10:57:29;;;;;;;7.23;4.87;;;17.30;99.90;;;;;;4996593;28;20881;-67
2022/10/14 11:00:09;;;;;;;4.63;4.23;;;17.20;99.90;;;;;;4992842;28;20500;-67
2022/10/14 11:02:38;;;;;;;8.03;5.43;;;17.20;99.90;;;;;;5004166;28;20472;-67
2022/10/14 11:05:13;;;;;;;6.67;5.00;;;17.20;99.90;;;;;;5003207;28;20783;-67
2022/10/14 11:12:01;;;;;;;11.43;6.43;;;17.20;99.90;;;;;;4999863;28;20453;-67
2022/10/14 11:14:30;;;;;;;7.63;5.93;;;17.10;99.90;;;;;;4995046;28;20519;-68
2022/10/14 11:17:10;;;;;;;6.37;5.77;;;16.60;99.90;;;;;;4996181;28;20517;-67
2022/10/14 11:19:56;;;;;;;5.57;5.07;;;16.20;99.90;;;;;;4995848;28;20813;-67
2022/10/14 11:22:50;;;;;;;11.00;8.43;;;16.00;99.90;;;;;;4997786;28;20468;-67
2022/10/14 11:25:37;;;;;;;6.73;6.07;;;15.90;99.90;;;;;;4990101;28;20557;-67
2022/10/14 11:28:34;;;;;;;5.20;4.67;;;15.80;99.90;;;;;;4992455;28;20447;-67
2022/10/14 11:31:10;;;;;;;7.53;6.63;;;15.80;99.90;;;;;;4994974;28;20442;-67
2022/10/14 11:33:56;;;;;;;7.40;5.77;;;15.70;99.90;;;;;;4999379;28;20484;-67
2022/10/14 11:36:34;;;;;;;6.10;5.60;;;15.70;99.90;;;;;;4988797;28;20454;-67
2022/10/14 11:39:08;;;;;;;6.10;5.60;;;15.80;99.90;;;;;;4999630;28;20447;-67
2022/10/14 11:42:01;;;;;;;6.57;5.83;;;15.80;99.90;;;;;;4999976;28;20441;-67
2022/10/14 11:44:38;;;;;;;8.40;5.97;;;15.90;99.90;;;;;;4984338;28;20438;-67
2022/10/14 11:47:30;;;;;;;6.10;5.50;;;16.20;99.90;;;;;;4989982;28;20433;-67
2022/10/14 11:50:20;;;;;;;6.80;6.20;;;16.40;99.90;;;;;;4989115;28;20438;-67
2022/10/14 11:52:58;;;;;;;6.23;5.63;;;16.50;99.90;;;;;;4988238;28;20823;-67
2022/10/14 11:55:28;;;;;;;6.37;5.53;;;16.50;99.90;;;;;;4985575;28;20526;-67
2022/10/14 11:58:17;;;;;;;5.60;4.93;;;16.70;99.90;;;;;;4994276;28;20435;-67
2022/10/14 12:00:50;;;;;;;7.23;5.43;;;16.80;99.90;;;;;;4983942;28;20434;-68
2022/10/14 12:03:34;;;;;;;6.80;5.00;;;17.10;99.90;;;;;;5000432;28;20536;-67
2022/10/14 12:06:35;;;;;;;8.30;4.83;;;17.40;99.90;;;;;;4986478;28;20441;-67
2022/10/14 12:09:09;;;;;;;6.33;4.47;;;17.70;99.90;;;;;;4983976;28;20441;-68
2022/10/14 12:11:55;;;;;;;9.90;4.97;;;17.70;99.90;;;;;;4989530;28;20466;-67
2022/10/14 12:14:35;;;;;;;5.57;4.77;;;17.60;99.90;;;;;;4987474;28;20478;-68
2022/10/14 12:17:15;;;;;;;4.70;4.30;;;17.80;99.90;;;;;;4988047;28;20914;-67
2022/10/14 12:19:40;;;;;;;4.90;4.07;;;17.80;99.90;;;;;;4986145;28;20426;-67
2022/10/14 12:22:19;;;;;;;4.47;4.07;;;17.90;99.90;;;;;;4985853;28;20808;-67
2022/10/14 12:24:56;;;;;;;4.70;3.90;;;18.20;99.90;;;;;;4988355;28;20438;-67
2022/10/14 12:27:25;;;;;;;4.60;3.70;;;18.30;99.90;;;;;;4985105;28;20430;-67
2022/10/14 12:29:51;;;;;;;5.53;4.00;;;18.20;99.90;;;;;;4985167;28;20427;-67
2022/10/14 12:32:20;;;;;;;4.77;4.37;;;17.90;99.90;;;;;;4988852;28;20465;-67
2022/10/14 12:34:48;;;;;;;6.00;3.63;;;17.80;99.90;;;;;;4988835;28;20532;-67
2022/10/14 12:37:36;;;;;;;5.13;4.20;;;17.80;99.90;;;;;;4990115;28;20475;-68
2022/10/14 12:40:02;;;;;;;5.13;3.30;;;17.60;99.90;;;;;;4990653;28;20504;-67
2022/10/14 12:42:34;;;;;;;4.47;4.10;;;17.60;99.90;;;;;;4988281;28;20470;-67
2022/10/14 12:45:03;;;;;;;4.10;3.60;;;17.60;99.90;;;;;;4989630;28;20176;-67
2022/10/14 12:47:34;;;;;;;4.80;3.60;;;17.60;99.90;;;;;;4992328;28;20443;-67
2022/10/14 12:50:04;;;;;;;4.30;3.53;;;17.60;99.90;;;;;;4988708;28;20818;-67
2022/10/14 12:52:32;;;;;;;5.17;4.00;;;17.70;99.90;;;;;;4989444;28;20549;-68
2022/10/14 12:55:03;;;;;;;3.83;3.10;;;17.60;99.90;;;;;;4989708;28;20435;-67
2022/10/14 12:57:35;;;;;;;4.10;3.80;;;17.50;99.90;;;;;;4986156;28;20515;-67
2022/10/14 13:00:13;;;;;;;5.87;4.63;;;17.50;99.90;;;;;;4990292;28;20438;-68